sensor_id;sensor_type;location;lat;lon;timestamp;P1;durP1;ratioP1;P2;durP2;ratioP2
5923;SDS011;2987;50.884;14.818;2023-12-20T00:01:10;14.40;;;11.63;;
5923;SDS011;2987;50.884;14.818;2023-12-20T00:03:36;15.77;;;12.33;;
5923;SDS011;2987;50.884;14.818;2023-12-20T00:06:02;16.50;;;12.40;;
5923;SDS011;2987;50.884;14.818;2023-12-20T00:08:28;14.80;;;11.47;;
5923;SDS011;2987;50.884;14.818;2023-12-20T00:10:54;14.37;;;11.63;;
5923;SDS011;2987;50.884;14.818;2023-12-20T00:13:20;11.77;;;9.80;;
5923;SDS011;2987;50.884;14.818;2023-12-20T00:15:46;12.67;;;8.87;;
5923;SDS011;2987;50.884;14.818;2023-12-20T00:18:11;10.50;;;8.17;;
5923;SDS011;2987;50.884;14.818;2023-12-20T00:20:37;10.13;;;6.80;;
5923;SDS011;2987;50.884;14.818;2023-12-20T00:23:04;7.23;;;6.40;;
5923;SDS011;2987;50.884;14.818;2023-12-20T00:25:30;8.97;;;7.17;;
5923;SDS011;2987;50.884;14.818;2023-12-20T00:27:56;6.90;;;6.20;;
5923;SDS011;2987;50.884;14.818;2023-12-20T00:30:22;7.70;;;6.90;;
5923;SDS011;2987;50.884;14.818;2023-12-20T00:32:48;7.67;;;6.57;;
5923;SDS011;2987;50.884;14.818;2023-12-20T00:35:14;7.33;;;6.47;;
5923;SDS011;2987;50.884;14.818;2023-12-20T00:37:41;8.07;;;6.63;;
5923;SDS011;2987;50.884;14.818;2023-12-20T00:40:08;7.53;;;6.53;;
5923;SDS011;2987;50.884;14.818;2023-12-20T00:42:34;7.57;;;6.43;;
5923;SDS011;2987;50.884;14.818;2023-12-20T00:45:01;8.23;;;5.60;;
5923;SDS011;2987;50.884;14.818;2023-12-20T00:47:30;6.93;;;5.60;;
5923;SDS011;2987;50.884;14.818;2023-12-20T00:49:57;5.97;;;5.37;;
5923;SDS011;2987;50.884;14.818;2023-12-20T00:52:23;5.90;;;4.53;;
5923;SDS011;2987;50.884;14.818;2023-12-20T00:54:49;5.67;;;5.10;;
5923;SDS011;2987;50.884;14.818;2023-12-20T00:57:15;5.83;;;4.70;;
5923;SDS011;2987;50.884;14.818;2023-12-20T00:59:41;4.60;;;4.20;;
5923;SDS011;2987;50.884;14.818;2023-12-20T01:02:07;4.40;;;3.80;;
5923;SDS011;2987;50.884;14.818;2023-12-20T01:04:34;4.73;;;3.90;;
5923;SDS011;2987;50.884;14.818;2023-12-20T01:07:00;3.77;;;3.47;;
5923;SDS011;2987;50.884;14.818;2023-12-20T01:09:26;3.67;;;3.33;;
5923;SDS011;2987;50.884;14.818;2023-12-20T01:11:52;3.93;;;3.47;;
5923;SDS011;2987;50.884;14.818;2023-12-20T01:14:19;3.40;;;3.10;;
5923;SDS011;2987;50.884;14.818;2023-12-20T01:16:45;3.30;;;3.00;;
5923;SDS011;2987;50.884;14.818;2023-12-20T01:19:11;3.47;;;3.20;;
5923;SDS011;2987;50.884;14.818;2023-12-20T01:21:39;3.03;;;2.83;;
5923;SDS011;2987;50.884;14.818;2023-12-20T01:24:05;3.90;;;3.40;;
5923;SDS011;2987;50.884;14.818;2023-12-20T01:26:31;3.97;;;3.67;;
5923;SDS011;2987;50.884;14.818;2023-12-20T01:28:57;4.00;;;3.63;;
5923;SDS011;2987;50.884;14.818;2023-12-20T01:31:23;3.90;;;3.57;;
5923;SDS011;2987;50.884;14.818;2023-12-20T01:33:49;3.80;;;3.33;;
5923;SDS011;2987;50.884;14.818;2023-12-20T01:36:15;3.53;;;3.23;;
5923;SDS011;2987;50.884;14.818;2023-12-20T01:38:41;3.90;;;3.60;;
5923;SDS011;2987;50.884;14.818;2023-12-20T01:41:07;4.00;;;3.60;;
5923;SDS011;2987;50.884;14.818;2023-12-20T01:43:33;3.30;;;3.10;;
5923;SDS011;2987;50.884;14.818;2023-12-20T01:45:59;3.47;;;2.90;;
5923;SDS011;2987;50.884;14.818;2023-12-20T01:48:25;2.90;;;2.70;;
5923;SDS011;2987;50.884;14.818;2023-12-20T01:50:52;2.33;;;2.23;;
5923;SDS011;2987;50.884;14.818;2023-12-20T01:53:19;2.73;;;2.53;;
5923;SDS011;2987;50.884;14.818;2023-12-20T01:55:47;2.47;;;2.27;;
5923;SDS011;2987;50.884;14.818;2023-12-20T01:58:14;3.17;;;2.50;;
5923;SDS011;2987;50.884;14.818;2023-12-20T02:00:40;2.40;;;2.20;;
5923;SDS011;2987;50.884;14.818;2023-12-20T02:03:06;2.50;;;2.30;;
5923;SDS011;2987;50.884;14.818;2023-12-20T02:05:33;2.20;;;2.10;;
5923;SDS011;2987;50.884;14.818;2023-12-20T02:08:01;2.20;;;2.10;;
5923;SDS011;2987;50.884;14.818;2023-12-20T02:10:27;1.90;;;1.80;;
5923;SDS011;2987;50.884;14.818;2023-12-20T02:12:54;2.00;;;1.90;;
5923;SDS011;2987;50.884;14.818;2023-12-20T02:15:20;1.97;;;1.87;;
5923;SDS011;2987;50.884;14.818;2023-12-20T02:17:47;1.70;;;1.60;;
5923;SDS011;2987;50.884;14.818;2023-12-20T02:20:13;1.90;;;1.80;;
5923;SDS011;2987;50.884;14.818;2023-12-20T02:22:39;1.97;;;1.87;;
5923;SDS011;2987;50.884;14.818;2023-12-20T02:25:05;1.90;;;1.80;;
5923;SDS011;2987;50.884;14.818;2023-12-20T02:27:32;2.17;;;2.07;;
5923;SDS011;2987;50.884;14.818;2023-12-20T02:29:58;1.83;;;1.73;;
5923;SDS011;2987;50.884;14.818;2023-12-20T02:32:24;1.63;;;1.60;;
5923;SDS011;2987;50.884;14.818;2023-12-20T02:34:53;1.73;;;1.63;;
5923;SDS011;2987;50.884;14.818;2023-12-20T02:37:20;1.70;;;1.60;;
5923;SDS011;2987;50.884;14.818;2023-12-20T02:39:46;1.73;;;1.63;;
5923;SDS011;2987;50.884;14.818;2023-12-20T02:42:12;1.67;;;1.57;;
5923;SDS011;2987;50.884;14.818;2023-12-20T02:44:38;1.60;;;1.50;;
5923;SDS011;2987;50.884;14.818;2023-12-20T02:47:04;1.60;;;1.50;;
5923;SDS011;2987;50.884;14.818;2023-12-20T02:49:30;1.70;;;1.60;;
5923;SDS011;2987;50.884;14.818;2023-12-20T02:51:56;3.13;;;1.67;;
5923;SDS011;2987;50.884;14.818;2023-12-20T02:54:22;1.63;;;1.53;;
5923;SDS011;2987;50.884;14.818;2023-12-20T02:56:48;3.13;;;1.53;;
5923;SDS011;2987;50.884;14.818;2023-12-20T02:59:14;1.80;;;1.70;;
5923;SDS011;2987;50.884;14.818;2023-12-20T03:01:44;1.70;;;1.60;;
5923;SDS011;2987;50.884;14.818;2023-12-20T03:04:11;1.80;;;1.57;;
5923;SDS011;2987;50.884;14.818;2023-12-20T03:06:37;1.83;;;1.73;;
5923;SDS011;2987;50.884;14.818;2023-12-20T03:09:03;1.70;;;1.60;;
5923;SDS011;2987;50.884;14.818;2023-12-20T03:11:29;1.70;;;1.60;;
5923;SDS011;2987;50.884;14.818;2023-12-20T03:13:56;1.70;;;1.60;;
5923;SDS011;2987;50.884;14.818;2023-12-20T03:16:22;1.80;;;1.70;;
5923;SDS011;2987;50.884;14.818;2023-12-20T03:18:49;1.60;;;1.50;;
5923;SDS011;2987;50.884;14.818;2023-12-20T03:21:15;1.77;;;1.70;;
5923;SDS011;2987;50.884;14.818;2023-12-20T03:23:41;1.40;;;1.40;;
5923;SDS011;2987;50.884;14.818;2023-12-20T03:26:07;1.57;;;1.50;;
5923;SDS011;2987;50.884;14.818;2023-12-20T03:28:34;1.70;;;1.60;;
5923;SDS011;2987;50.884;14.818;2023-12-20T03:31:01;1.50;;;1.50;;
5923;SDS011;2987;50.884;14.818;2023-12-20T03:33:27;1.20;;;1.20;;
5923;SDS011;2987;50.884;14.818;2023-12-20T03:35:54;1.57;;;1.50;;
5923;SDS011;2987;50.884;14.818;2023-12-20T03:38:20;1.40;;;1.30;;
5923;SDS011;2987;50.884;14.818;2023-12-20T03:40:47;1.70;;;1.60;;
5923;SDS011;2987;50.884;14.818;2023-12-20T03:43:13;1.67;;;1.57;;
5923;SDS011;2987;50.884;14.818;2023-12-20T03:45:38;1.63;;;1.53;;
5923;SDS011;2987;50.884;14.818;2023-12-20T03:48:05;1.30;;;1.30;;
5923;SDS011;2987;50.884;14.818;2023-12-20T03:50:31;1.40;;;1.40;;
5923;SDS011;2987;50.884;14.818;2023-12-20T03:52:57;1.37;;;1.37;;
5923;SDS011;2987;50.884;14.818;2023-12-20T03:55:23;1.50;;;1.40;;
5923;SDS011;2987;50.884;14.818;2023-12-20T03:57:49;1.60;;;1.50;;
5923;SDS011;2987;50.884;14.818;2023-12-20T04:00:14;1.50;;;1.40;;
5923;SDS011;2987;50.884;14.818;2023-12-20T04:02:41;1.50;;;1.50;;
5923;SDS011;2987;50.884;14.818;2023-12-20T04:05:08;1.40;;;1.40;;
5923;SDS011;2987;50.884;14.818;2023-12-20T04:07:35;1.63;;;1.53;;
5923;SDS011;2987;50.884;14.818;2023-12-20T04:10:02;1.40;;;1.40;;
5923;SDS011;2987;50.884;14.818;2023-12-20T04:12:29;1.77;;;1.67;;
5923;SDS011;2987;50.884;14.818;2023-12-20T04:14:56;1.93;;;1.80;;
5923;SDS011;2987;50.884;14.818;2023-12-20T04:17:22;2.17;;;1.63;;
5923;SDS011;2987;50.884;14.818;2023-12-20T04:19:49;1.50;;;1.50;;
5923;SDS011;2987;50.884;14.818;2023-12-20T04:22:15;1.53;;;1.50;;
5923;SDS011;2987;50.884;14.818;2023-12-20T04:24:42;1.60;;;1.50;;
5923;SDS011;2987;50.884;14.818;2023-12-20T04:27:08;1.30;;;1.30;;
5923;SDS011;2987;50.884;14.818;2023-12-20T04:29:34;1.27;;;1.27;;
5923;SDS011;2987;50.884;14.818;2023-12-20T04:32:00;1.60;;;1.50;;
5923;SDS011;2987;50.884;14.818;2023-12-20T04:34:26;1.47;;;1.47;;
5923;SDS011;2987;50.884;14.818;2023-12-20T04:36:52;1.37;;;1.30;;
5923;SDS011;2987;50.884;14.818;2023-12-20T04:39:19;1.20;;;1.20;;
5923;SDS011;2987;50.884;14.818;2023-12-20T04:41:44;1.23;;;1.23;;
5923;SDS011;2987;50.884;14.818;2023-12-20T04:44:13;1.20;;;1.20;;
5923;SDS011;2987;50.884;14.818;2023-12-20T04:46:39;1.30;;;1.30;;
5923;SDS011;2987;50.884;14.818;2023-12-20T04:49:05;1.20;;;1.20;;
5923;SDS011;2987;50.884;14.818;2023-12-20T04:51:34;1.37;;;1.37;;
5923;SDS011;2987;50.884;14.818;2023-12-20T04:54:00;1.20;;;1.20;;
5923;SDS011;2987;50.884;14.818;2023-12-20T04:56:27;1.27;;;1.20;;
5923;SDS011;2987;50.884;14.818;2023-12-20T04:58:53;1.37;;;1.27;;
5923;SDS011;2987;50.884;14.818;2023-12-20T05:01:19;1.30;;;1.30;;
5923;SDS011;2987;50.884;14.818;2023-12-20T05:03:46;1.30;;;1.30;;
5923;SDS011;2987;50.884;14.818;2023-12-20T05:06:12;1.30;;;1.20;;
5923;SDS011;2987;50.884;14.818;2023-12-20T05:08:38;1.20;;;1.20;;
5923;SDS011;2987;50.884;14.818;2023-12-20T05:11:04;1.10;;;1.10;;
5923;SDS011;2987;50.884;14.818;2023-12-20T05:13:30;1.60;;;1.50;;
5923;SDS011;2987;50.884;14.818;2023-12-20T05:15:56;1.80;;;1.70;;
5923;SDS011;2987;50.884;14.818;2023-12-20T05:18:22;1.90;;;1.80;;
5923;SDS011;2987;50.884;14.818;2023-12-20T05:20:49;2.80;;;2.03;;
5923;SDS011;2987;50.884;14.818;2023-12-20T05:23:16;2.70;;;1.90;;
5923;SDS011;2987;50.884;14.818;2023-12-20T05:25:42;1.60;;;1.50;;
5923;SDS011;2987;50.884;14.818;2023-12-20T05:28:08;2.13;;;1.77;;
5923;SDS011;2987;50.884;14.818;2023-12-20T05:30:34;1.97;;;1.80;;
5923;SDS011;2987;50.884;14.818;2023-12-20T05:33:00;2.60;;;2.10;;
5923;SDS011;2987;50.884;14.818;2023-12-20T05:35:26;4.33;;;2.60;;
5923;SDS011;2987;50.884;14.818;2023-12-20T05:37:53;1.73;;;1.60;;
5923;SDS011;2987;50.884;14.818;2023-12-20T05:40:18;3.13;;;1.80;;
5923;SDS011;2987;50.884;14.818;2023-12-20T05:42:45;1.40;;;1.20;;
5923;SDS011;2987;50.884;14.818;2023-12-20T05:45:11;1.20;;;1.20;;
5923;SDS011;2987;50.884;14.818;2023-12-20T05:47:37;1.40;;;1.40;;
5923;SDS011;2987;50.884;14.818;2023-12-20T05:50:03;1.30;;;1.20;;
5923;SDS011;2987;50.884;14.818;2023-12-20T05:52:30;1.00;;;1.00;;
5923;SDS011;2987;50.884;14.818;2023-12-20T05:54:56;1.20;;;1.20;;
5923;SDS011;2987;50.884;14.818;2023-12-20T05:57:28;1.20;;;1.20;;
5923;SDS011;2987;50.884;14.818;2023-12-20T05:59:54;1.00;;;1.00;;
5923;SDS011;2987;50.884;14.818;2023-12-20T06:02:20;1.00;;;1.00;;
5923;SDS011;2987;50.884;14.818;2023-12-20T06:04:46;0.90;;;0.90;;
5923;SDS011;2987;50.884;14.818;2023-12-20T06:07:12;0.93;;;0.93;;
5923;SDS011;2987;50.884;14.818;2023-12-20T06:09:38;1.00;;;1.00;;
5923;SDS011;2987;50.884;14.818;2023-12-20T06:12:05;1.20;;;1.20;;
5923;SDS011;2987;50.884;14.818;2023-12-20T06:14:31;1.07;;;1.07;;
5923;SDS011;2987;50.884;14.818;2023-12-20T06:16:57;1.33;;;1.30;;
5923;SDS011;2987;50.884;14.818;2023-12-20T06:19:23;1.10;;;1.10;;
5923;SDS011;2987;50.884;14.818;2023-12-20T06:21:49;1.50;;;1.40;;
5923;SDS011;2987;50.884;14.818;2023-12-20T06:24:15;1.50;;;1.40;;
5923;SDS011;2987;50.884;14.818;2023-12-20T06:26:41;1.50;;;1.40;;
5923;SDS011;2987;50.884;14.818;2023-12-20T06:29:08;1.40;;;1.30;;
5923;SDS011;2987;50.884;14.818;2023-12-20T06:31:34;1.50;;;1.40;;
5923;SDS011;2987;50.884;14.818;2023-12-20T06:34:00;1.83;;;1.70;;
5923;SDS011;2987;50.884;14.818;2023-12-20T06:36:27;1.87;;;1.70;;
5923;SDS011;2987;50.884;14.818;2023-12-20T06:38:53;1.47;;;1.40;;
5923;SDS011;2987;50.884;14.818;2023-12-20T06:41:19;1.50;;;1.40;;
5923;SDS011;2987;50.884;14.818;2023-12-20T06:43:46;1.10;;;1.10;;
5923;SDS011;2987;50.884;14.818;2023-12-20T06:46:12;1.10;;;1.10;;
5923;SDS011;2987;50.884;14.818;2023-12-20T06:48:38;0.90;;;0.90;;
5923;SDS011;2987;50.884;14.818;2023-12-20T06:51:05;1.00;;;1.00;;
5923;SDS011;2987;50.884;14.818;2023-12-20T06:53:31;1.40;;;1.30;;
5923;SDS011;2987;50.884;14.818;2023-12-20T06:55:58;1.20;;;1.20;;
5923;SDS011;2987;50.884;14.818;2023-12-20T06:58:24;1.20;;;1.20;;
5923;SDS011;2987;50.884;14.818;2023-12-20T07:00:50;1.10;;;1.10;;
5923;SDS011;2987;50.884;14.818;2023-12-20T07:03:17;1.00;;;1.00;;
5923;SDS011;2987;50.884;14.818;2023-12-20T07:05:44;1.30;;;1.20;;
5923;SDS011;2987;50.884;14.818;2023-12-20T07:08:10;0.93;;;0.93;;
5923;SDS011;2987;50.884;14.818;2023-12-20T07:10:36;1.23;;;1.13;;
5923;SDS011;2987;50.884;14.818;2023-12-20T07:13:02;1.33;;;1.10;;
5923;SDS011;2987;50.884;14.818;2023-12-20T07:15:28;1.00;;;1.00;;
5923;SDS011;2987;50.884;14.818;2023-12-20T07:17:55;1.10;;;1.10;;
5923;SDS011;2987;50.884;14.818;2023-12-20T07:20:21;1.30;;;1.20;;
5923;SDS011;2987;50.884;14.818;2023-12-20T07:22:47;1.00;;;1.00;;
5923;SDS011;2987;50.884;14.818;2023-12-20T07:25:13;1.20;;;1.20;;
5923;SDS011;2987;50.884;14.818;2023-12-20T07:27:39;1.20;;;1.20;;
5923;SDS011;2987;50.884;14.818;2023-12-20T07:30:05;1.20;;;1.20;;
5923;SDS011;2987;50.884;14.818;2023-12-20T07:32:31;1.00;;;1.00;;
5923;SDS011;2987;50.884;14.818;2023-12-20T07:34:57;1.40;;;1.30;;
5923;SDS011;2987;50.884;14.818;2023-12-20T07:37:23;1.20;;;1.20;;
5923;SDS011;2987;50.884;14.818;2023-12-20T07:39:49;2.20;;;2.00;;
5923;SDS011;2987;50.884;14.818;2023-12-20T07:42:15;1.40;;;1.30;;
5923;SDS011;2987;50.884;14.818;2023-12-20T07:44:41;1.70;;;1.60;;
5923;SDS011;2987;50.884;14.818;2023-12-20T07:47:07;1.30;;;1.30;;
5923;SDS011;2987;50.884;14.818;2023-12-20T07:49:33;2.03;;;1.93;;
5923;SDS011;2987;50.884;14.818;2023-12-20T07:51:59;1.90;;;1.80;;
5923;SDS011;2987;50.884;14.818;2023-12-20T07:54:25;2.90;;;2.00;;
5923;SDS011;2987;50.884;14.818;2023-12-20T07:56:51;1.73;;;1.63;;
5923;SDS011;2987;50.884;14.818;2023-12-20T07:59:17;2.20;;;2.10;;
5923;SDS011;2987;50.884;14.818;2023-12-20T08:01:43;2.20;;;2.00;;
5923;SDS011;2987;50.884;14.818;2023-12-20T08:04:09;1.80;;;1.70;;
5923;SDS011;2987;50.884;14.818;2023-12-20T08:06:35;1.53;;;1.50;;
5923;SDS011;2987;50.884;14.818;2023-12-20T08:09:01;3.30;;;2.67;;
5923;SDS011;2987;50.884;14.818;2023-12-20T08:11:28;2.50;;;2.30;;
5923;SDS011;2987;50.884;14.818;2023-12-20T08:13:54;4.03;;;2.30;;
5923;SDS011;2987;50.884;14.818;2023-12-20T08:16:21;1.90;;;1.80;;
5923;SDS011;2987;50.884;14.818;2023-12-20T08:18:47;2.00;;;1.90;;
5923;SDS011;2987;50.884;14.818;2023-12-20T08:21:13;2.00;;;1.90;;
5923;SDS011;2987;50.884;14.818;2023-12-20T08:23:39;1.57;;;1.47;;
5923;SDS011;2987;50.884;14.818;2023-12-20T08:26:05;1.40;;;1.40;;
5923;SDS011;2987;50.884;14.818;2023-12-20T08:28:32;1.50;;;1.50;;
5923;SDS011;2987;50.884;14.818;2023-12-20T08:30:58;1.43;;;1.33;;
5923;SDS011;2987;50.884;14.818;2023-12-20T08:33:25;1.20;;;1.20;;
5923;SDS011;2987;50.884;14.818;2023-12-20T08:35:51;1.47;;;1.40;;
5923;SDS011;2987;50.884;14.818;2023-12-20T08:38:17;1.37;;;1.37;;
5923;SDS011;2987;50.884;14.818;2023-12-20T08:40:43;2.37;;;1.60;;
5923;SDS011;2987;50.884;14.818;2023-12-20T08:43:10;1.70;;;1.60;;
5923;SDS011;2987;50.884;14.818;2023-12-20T08:45:36;1.30;;;1.30;;
5923;SDS011;2987;50.884;14.818;2023-12-20T08:48:02;1.50;;;1.40;;
5923;SDS011;2987;50.884;14.818;2023-12-20T08:50:31;1.60;;;1.50;;
5923;SDS011;2987;50.884;14.818;2023-12-20T08:52:57;1.97;;;1.87;;
5923;SDS011;2987;50.884;14.818;2023-12-20T08:55:24;1.80;;;1.70;;
5923;SDS011;2987;50.884;14.818;2023-12-20T08:57:52;1.93;;;1.83;;
5923;SDS011;2987;50.884;14.818;2023-12-20T09:00:18;2.00;;;1.90;;
5923;SDS011;2987;50.884;14.818;2023-12-20T09:02:46;2.10;;;1.90;;
5923;SDS011;2987;50.884;14.818;2023-12-20T09:05:12;2.83;;;2.63;;
5923;SDS011;2987;50.884;14.818;2023-12-20T09:07:38;2.70;;;2.50;;
5923;SDS011;2987;50.884;14.818;2023-12-20T09:10:04;2.87;;;2.67;;
5923;SDS011;2987;50.884;14.818;2023-12-20T09:12:30;3.23;;;2.80;;
5923;SDS011;2987;50.884;14.818;2023-12-20T09:14:56;3.20;;;2.90;;
5923;SDS011;2987;50.884;14.818;2023-12-20T09:17:22;3.53;;;3.10;;
5923;SDS011;2987;50.884;14.818;2023-12-20T09:19:50;3.53;;;3.23;;
5923;SDS011;2987;50.884;14.818;2023-12-20T09:22:19;3.43;;;3.13;;
5923;SDS011;2987;50.884;14.818;2023-12-20T09:24:45;2.33;;;2.23;;
5923;SDS011;2987;50.884;14.818;2023-12-20T09:27:11;2.90;;;2.60;;
5923;SDS011;2987;50.884;14.818;2023-12-20T09:29:37;2.47;;;2.27;;
5923;SDS011;2987;50.884;14.818;2023-12-20T09:32:03;2.23;;;2.13;;
5923;SDS011;2987;50.884;14.818;2023-12-20T09:34:29;2.20;;;2.10;;
5923;SDS011;2987;50.884;14.818;2023-12-20T09:36:55;2.90;;;2.50;;
5923;SDS011;2987;50.884;14.818;2023-12-20T09:39:21;3.10;;;2.40;;
5923;SDS011;2987;50.884;14.818;2023-12-20T09:44:29;3.17;;;2.10;;
5923;SDS011;2987;50.884;14.818;2023-12-20T09:47:01;3.57;;;2.40;;
5923;SDS011;2987;50.884;14.818;2023-12-20T09:49:28;3.97;;;2.20;;
5923;SDS011;2987;50.884;14.818;2023-12-20T09:51:56;5.10;;;2.40;;
5923;SDS011;2987;50.884;14.818;2023-12-20T09:54:22;4.77;;;2.60;;
5923;SDS011;2987;50.884;14.818;2023-12-20T09:56:49;5.17;;;2.20;;
5923;SDS011;2987;50.884;14.818;2023-12-20T09:59:15;2.30;;;2.10;;
5923;SDS011;2987;50.884;14.818;2023-12-20T10:01:41;3.40;;;2.07;;
5923;SDS011;2987;50.884;14.818;2023-12-20T10:04:09;2.53;;;2.23;;
5923;SDS011;2987;50.884;14.818;2023-12-20T10:06:43;3.20;;;2.10;;
5923;SDS011;2987;50.884;14.818;2023-12-20T10:09:10;2.23;;;2.00;;
5923;SDS011;2987;50.884;14.818;2023-12-20T10:11:40;3.17;;;2.00;;
5923;SDS011;2987;50.884;14.818;2023-12-20T10:14:06;3.30;;;2.10;;
5923;SDS011;2987;50.884;14.818;2023-12-20T10:16:33;3.77;;;1.90;;
5923;SDS011;2987;50.884;14.818;2023-12-20T10:18:59;4.80;;;2.10;;
5923;SDS011;2987;50.884;14.818;2023-12-20T10:21:29;4.37;;;2.00;;
5923;SDS011;2987;50.884;14.818;2023-12-20T10:23:56;5.77;;;2.10;;
5923;SDS011;2987;50.884;14.818;2023-12-20T10:26:23;4.30;;;2.30;;
5923;SDS011;2987;50.884;14.818;2023-12-20T10:28:51;3.63;;;2.47;;
5923;SDS011;2987;50.884;14.818;2023-12-20T10:31:26;4.33;;;2.13;;
5923;SDS011;2987;50.884;14.818;2023-12-20T10:33:55;4.13;;;1.80;;
5923;SDS011;2987;50.884;14.818;2023-12-20T10:36:23;2.93;;;1.70;;
5923;SDS011;2987;50.884;14.818;2023-12-20T10:38:52;2.67;;;1.73;;
5923;SDS011;2987;50.884;14.818;2023-12-20T10:41:20;1.73;;;1.60;;
5923;SDS011;2987;50.884;14.818;2023-12-20T10:43:58;4.27;;;2.00;;
5923;SDS011;2987;50.884;14.818;2023-12-20T10:46:28;3.33;;;1.50;;
5923;SDS011;2987;50.884;14.818;2023-12-20T10:48:56;3.60;;;1.83;;
5923;SDS011;2987;50.884;14.818;2023-12-20T10:51:23;6.00;;;1.77;;
5923;SDS011;2987;50.884;14.818;2023-12-20T10:53:52;5.47;;;1.60;;
5923;SDS011;2987;50.884;14.818;2023-12-20T10:56:19;5.43;;;1.80;;
5923;SDS011;2987;50.884;14.818;2023-12-20T10:58:47;2.20;;;1.50;;
5923;SDS011;2987;50.884;14.818;2023-12-20T11:01:15;4.80;;;1.60;;
5923;SDS011;2987;50.884;14.818;2023-12-20T11:03:51;1.33;;;1.20;;
5923;SDS011;2987;50.884;14.818;2023-12-20T11:06:23;4.40;;;1.60;;
5923;SDS011;2987;50.884;14.818;2023-12-20T11:09:20;5.73;;;1.70;;
5923;SDS011;2987;50.884;14.818;2023-12-20T11:14:52;4.07;;;1.57;;
5923;SDS011;2987;50.884;14.818;2023-12-20T11:17:22;2.97;;;1.57;;
5923;SDS011;2987;50.884;14.818;2023-12-20T11:22:21;3.23;;;1.60;;
5923;SDS011;2987;50.884;14.818;2023-12-20T11:24:48;4.20;;;1.67;;
5923;SDS011;2987;50.884;14.818;2023-12-20T11:27:15;3.37;;;1.93;;
5923;SDS011;2987;50.884;14.818;2023-12-20T11:29:41;2.97;;;1.57;;
5923;SDS011;2987;50.884;14.818;2023-12-20T11:34:55;3.07;;;1.60;;
5923;SDS011;2987;50.884;14.818;2023-12-20T11:37:22;1.77;;;1.60;;
5923;SDS011;2987;50.884;14.818;2023-12-20T11:40:01;2.87;;;1.50;;
5923;SDS011;2987;50.884;14.818;2023-12-20T11:42:39;6.13;;;1.77;;
5923;SDS011;2987;50.884;14.818;2023-12-20T11:45:09;4.50;;;1.73;;
5923;SDS011;2987;50.884;14.818;2023-12-20T11:47:48;5.73;;;1.70;;
5923;SDS011;2987;50.884;14.818;2023-12-20T11:50:15;2.50;;;1.40;;
5923;SDS011;2987;50.884;14.818;2023-12-20T11:52:45;4.87;;;1.83;;
5923;SDS011;2987;50.884;14.818;2023-12-20T11:55:11;5.43;;;1.70;;
5923;SDS011;2987;50.884;14.818;2023-12-20T11:57:38;4.20;;;1.63;;
5923;SDS011;2987;50.884;14.818;2023-12-20T12:00:04;4.57;;;1.93;;
5923;SDS011;2987;50.884;14.818;2023-12-20T12:02:37;3.67;;;1.80;;
5923;SDS011;2987;50.884;14.818;2023-12-20T12:05:03;9.13;;;1.90;;
5923;SDS011;2987;50.884;14.818;2023-12-20T12:07:33;4.17;;;1.70;;
5923;SDS011;2987;50.884;14.818;2023-12-20T12:10:00;3.70;;;1.80;;
5923;SDS011;2987;50.884;14.818;2023-12-20T12:12:26;5.37;;;1.77;;
5923;SDS011;2987;50.884;14.818;2023-12-20T12:14:54;4.90;;;1.70;;
5923;SDS011;2987;50.884;14.818;2023-12-20T12:17:22;5.20;;;1.93;;
5923;SDS011;2987;50.884;14.818;2023-12-20T12:19:48;6.60;;;2.17;;
5923;SDS011;2987;50.884;14.818;2023-12-20T12:22:14;3.93;;;1.90;;
5923;SDS011;2987;50.884;14.818;2023-12-20T12:24:44;6.60;;;1.70;;
5923;SDS011;2987;50.884;14.818;2023-12-20T12:27:12;4.30;;;1.80;;
5923;SDS011;2987;50.884;14.818;2023-12-20T12:29:39;2.53;;;1.63;;
5923;SDS011;2987;50.884;14.818;2023-12-20T12:32:08;4.97;;;2.13;;
5923;SDS011;2987;50.884;14.818;2023-12-20T12:34:37;2.77;;;1.87;;
5923;SDS011;2987;50.884;14.818;2023-12-20T12:37:05;6.17;;;2.17;;
5923;SDS011;2987;50.884;14.818;2023-12-20T12:39:31;4.20;;;2.00;;
5923;SDS011;2987;50.884;14.818;2023-12-20T12:41:57;3.03;;;1.80;;
5923;SDS011;2987;50.884;14.818;2023-12-20T12:44:23;5.37;;;2.13;;
5923;SDS011;2987;50.884;14.818;2023-12-20T12:46:51;5.40;;;1.60;;
5923;SDS011;2987;50.884;14.818;2023-12-20T12:49:19;4.90;;;1.93;;
5923;SDS011;2987;50.884;14.818;2023-12-20T12:51:49;7.20;;;2.13;;
5923;SDS011;2987;50.884;14.818;2023-12-20T12:54:15;5.27;;;2.17;;
5923;SDS011;2987;50.884;14.818;2023-12-20T12:56:44;3.90;;;1.80;;
5923;SDS011;2987;50.884;14.818;2023-12-20T12:59:10;4.20;;;1.83;;
5923;SDS011;2987;50.884;14.818;2023-12-20T13:01:36;3.73;;;2.10;;
5923;SDS011;2987;50.884;14.818;2023-12-20T13:04:04;3.47;;;2.03;;
5923;SDS011;2987;50.884;14.818;2023-12-20T13:06:36;2.70;;;1.83;;
5923;SDS011;2987;50.884;14.818;2023-12-20T13:09:03;3.03;;;2.23;;
5923;SDS011;2987;50.884;14.818;2023-12-20T13:11:30;3.23;;;2.00;;
5923;SDS011;2987;50.884;14.818;2023-12-20T13:13:57;4.00;;;1.77;;
5923;SDS011;2987;50.884;14.818;2023-12-20T13:16:26;2.53;;;1.83;;
5923;SDS011;2987;50.884;14.818;2023-12-20T13:18:52;4.50;;;2.10;;
5923;SDS011;2987;50.884;14.818;2023-12-20T13:21:18;4.07;;;1.70;;
5923;SDS011;2987;50.884;14.818;2023-12-20T13:23:44;4.00;;;1.90;;
5923;SDS011;2987;50.884;14.818;2023-12-20T13:26:10;3.00;;;1.97;;
5923;SDS011;2987;50.884;14.818;2023-12-20T13:28:36;2.57;;;1.67;;
5923;SDS011;2987;50.884;14.818;2023-12-20T13:31:02;3.40;;;2.17;;
5923;SDS011;2987;50.884;14.818;2023-12-20T13:33:28;5.07;;;2.00;;
5923;SDS011;2987;50.884;14.818;2023-12-20T13:35:54;2.50;;;1.70;;
5923;SDS011;2987;50.884;14.818;2023-12-20T13:38:21;3.43;;;1.80;;
5923;SDS011;2987;50.884;14.818;2023-12-20T13:40:47;4.80;;;2.20;;
5923;SDS011;2987;50.884;14.818;2023-12-20T13:43:13;5.27;;;1.90;;
5923;SDS011;2987;50.884;14.818;2023-12-20T13:45:39;3.73;;;1.87;;
5923;SDS011;2987;50.884;14.818;2023-12-20T13:48:05;5.00;;;2.00;;
5923;SDS011;2987;50.884;14.818;2023-12-20T13:50:31;3.23;;;1.77;;
5923;SDS011;2987;50.884;14.818;2023-12-20T13:52:57;4.67;;;1.87;;
5923;SDS011;2987;50.884;14.818;2023-12-20T13:55:23;4.33;;;2.03;;
5923;SDS011;2987;50.884;14.818;2023-12-20T13:57:51;3.33;;;1.70;;
5923;SDS011;2987;50.884;14.818;2023-12-20T14:00:17;3.03;;;1.93;;
5923;SDS011;2987;50.884;14.818;2023-12-20T14:02:43;4.10;;;1.90;;
5923;SDS011;2987;50.884;14.818;2023-12-20T14:05:09;3.17;;;1.73;;
5923;SDS011;2987;50.884;14.818;2023-12-20T14:07:35;2.03;;;1.50;;
5923;SDS011;2987;50.884;14.818;2023-12-20T14:10:02;3.30;;;1.70;;
5923;SDS011;2987;50.884;14.818;2023-12-20T14:12:29;4.17;;;1.87;;
5923;SDS011;2987;50.884;14.818;2023-12-20T14:14:55;3.27;;;1.60;;
5923;SDS011;2987;50.884;14.818;2023-12-20T14:17:21;2.60;;;1.67;;
5923;SDS011;2987;50.884;14.818;2023-12-20T14:19:48;2.33;;;1.53;;
5923;SDS011;2987;50.884;14.818;2023-12-20T14:22:14;3.77;;;2.00;;
5923;SDS011;2987;50.884;14.818;2023-12-20T14:24:42;2.27;;;1.80;;
5923;SDS011;2987;50.884;14.818;2023-12-20T14:27:08;2.93;;;1.70;;
5923;SDS011;2987;50.884;14.818;2023-12-20T14:29:35;2.03;;;1.70;;
5923;SDS011;2987;50.884;14.818;2023-12-20T14:32:02;3.47;;;2.00;;
5923;SDS011;2987;50.884;14.818;2023-12-20T14:34:29;4.83;;;1.80;;
5923;SDS011;2987;50.884;14.818;2023-12-20T14:36:55;4.67;;;1.80;;
5923;SDS011;2987;50.884;14.818;2023-12-20T14:39:21;4.70;;;2.00;;
5923;SDS011;2987;50.884;14.818;2023-12-20T14:41:48;2.57;;;1.97;;
5923;SDS011;2987;50.884;14.818;2023-12-20T14:44:14;2.83;;;1.80;;
5923;SDS011;2987;50.884;14.818;2023-12-20T14:46:40;3.40;;;1.80;;
5923;SDS011;2987;50.884;14.818;2023-12-20T14:49:06;5.03;;;2.07;;
5923;SDS011;2987;50.884;14.818;2023-12-20T14:51:32;4.77;;;2.00;;
5923;SDS011;2987;50.884;14.818;2023-12-20T14:53:58;3.07;;;1.70;;
5923;SDS011;2987;50.884;14.818;2023-12-20T14:56:24;6.30;;;2.03;;
5923;SDS011;2987;50.884;14.818;2023-12-20T14:58:51;3.30;;;1.90;;
5923;SDS011;2987;50.884;14.818;2023-12-20T15:01:18;5.83;;;1.80;;
5923;SDS011;2987;50.884;14.818;2023-12-20T15:03:47;3.40;;;1.80;;
5923;SDS011;2987;50.884;14.818;2023-12-20T15:06:13;2.23;;;1.87;;
5923;SDS011;2987;50.884;14.818;2023-12-20T15:08:39;3.50;;;2.00;;